Database: COMPET-N - COOP - 3PL - 4PL - CNDOOM

WAD: Doom | Doom 2 | TNT | Plutonia | AV | HR | Scythe | MM | MM2 | Requiem | CE
Category: speed | nmare | max | nm100s | tyson | pacifist | fast | respawn | nomo | misc | built | all
Highscore: ALL | IWAD | PWAD | Country | Continent

Remove: wad | map | category | player | all
MapPlayerTimeDateFilenameCommentsDL
MAP01: System ControlRadek Pecka39.002003-01-01es01-039.zip - 425
E4M7: And Hell FollowedRadek Pecka41.002004-04-30n4s7-041.zip - 343
MAP01: System ControlRadek Pecka41.002002-12-18es01-041.zip - 392
MAP02: SacrificiumRadek Pecka41.002004-08-04rs02-041.zip - 333
MAP01: System ControlRadek Pecka44.002002-03-29es01-044.zip - 459
E1M2: Nuclear PlantRadek Pecka59.002002-05-08n1s2-059.zip - 261
E3M3: PandemoniumRadek Pecka1:11.002003-07-02n3s3-111.zip - 337
E1M9: Military BaseRadek Pecka1:15.002002-05-09n1s9-115.zip - 183
E3M3: PandemoniumRadek Pecka1:16.002002-04-30n3s3-116.zip - 204
MAP04: The FocusRadek Pecka1:18.002004-03-28ns04-118.zip - 192
E3M4: House Of PainRadek Pecka1:23.002003-07-02n3s4-123.zip - 312
MAP20: Gotcha!Radek Pecka1:26.002004-03-29ns20-126.zip - 202
E3M4: House Of PainRadek Pecka1:31.002002-05-01n3s4-131.zip - 204
MAP16: Deepest ReachesRadek Pecka1:32.002003-03-04es16-132.zip - 196
E2M4: Deimos LabRadek Pecka1:42.002002-05-05n2s4-142.zip - 329
E2M6: Halls Of The DamnedRadek Pecka1:46.002002-11-25n2s6-146.zip - 208
E1M7: Computer StationRadek Pecka1:53.002002-10-03n1s7-153.zip - 194
E2M5: Command CenterRadek Pecka1:53.002002-09-26n2s5-153.zip - 310
MAP18: The CourtyardRadek Pecka1:53.002004-03-29ns18-153.zip - 189
E2M6: Halls Of The DamnedRadek Pecka1:54.002002-02-23n2s6-154.zip - 227
E2M5: Command CenterRadek Pecka2:08.002002-02-23n2s5-208.zip - 207
MAP24: The ChasmRadek Pecka2:17.002004-03-31ns24-217.zip - 327
E2M7: Spawning VatsRadek Pecka2:24.002002-09-26n2s7-224.zip - 324
E2M7: Spawning VatsRadek Pecka2:27.002002-02-26n2s7-227.zip - 237
MAP09: The PitRadek Pecka2:44.002004-03-27ns09-244.zip - 186
MAP10: Refueling BaseRadek Pecka2:46.002004-03-27ns10-246.zip - 203
Remove: wad | map | category | player | all